Thurmont, MD (21788)

8:22 PM EDT on July 29, 2016 (GMT -0400)
Jimtown Road | | Change Station

Elev 442 ft 39.60 °N, 77.39 °W | Updated 8 minutes ago

Clear
Clear
85.8 °F
Feels Like 91 °F
N
1.2
Wind Variable Wind from WNW
Gusts 3.1 mph

Today
High -- | Low -- °F
--% Chance of Precip.
Yesterday
High -- | Low -- °F
Precip. -- in
Pressure 29.96 in
Visibility 10.0 miles
Clouds Clear
Heat Index 91 °F
Dew Point 71 °F
Humidity 61%
Rainfall 0.00 in
Snow Depth Not available.
6:06 AM 8:24 PM
Waning Crescent, 18% visible
METAR KRSP 292354Z AUTO 25004KT 10SM CLR 25/19 A2999 RMK AO2 SLP146 T02500194 10300 20244 53008 $
Pressure 29.96 in
Visibility 10.0 miles
Clouds Clear
Heat Index 91 °F
Dew Point 71 °F
Humidity 61%
Rainfall 0.00 in
Snow Depth Not available.
6:06 AM 8:24 PM
Waning Crescent, 18% visible
METAR KRSP 292354Z AUTO 25004KT 10SM CLR 25/19 A2999 RMK AO2 SLP146 T02500194 10300 20244 53008 $

10-Day Weather Forecast

Almanac

Astronomy

Jul. 29, 2016 Rise Set
Actual Time
Civil Twilight
Nautical Twilight
Astronomical Twilight
Moon
Length of Visible Light
Length of Day
Tomorrow will be .
, % of the Moon is Illuminated

Today's Extremes

State Highs State Lows

Community

WunderPhotos

Upload Photos

1,928,449 photos uploaded!

WunderBlog® & News

Nearby

Air Quality

  Air Quality AQ Index Pollutant
Not available.

Snow Depth

Station Depth Elevation

Earthquake Activity

City Distance Mag. Time & Date
Minimum magnitude displayed is 2.5.

Coastal Water Temperatures

Place Temperature

Stations

Nearby Weather Stations

Station Location Temp. Windchill Dew Point Humidity Wind Precip. Elev Updated Type
                   

Watches & Warnings

There are currently no watches in effect.